sensor_id;sensor_type;location;lat;lon;timestamp;P1;durP1;ratioP1;P2;durP2;ratioP2
60859;SDS011;46694;54.382;9.708;2023-07-20T00:02:26;3.60;;;1.50;;
60859;SDS011;46694;54.382;9.708;2023-07-20T00:05:06;2.20;;;1.30;;
60859;SDS011;46694;54.382;9.708;2023-07-20T00:07:45;7.50;;;2.20;;
60859;SDS011;46694;54.382;9.708;2023-07-20T00:10:25;1.80;;;1.70;;
60859;SDS011;46694;54.382;9.708;2023-07-20T00:13:05;1.50;;;1.30;;
60859;SDS011;46694;54.382;9.708;2023-07-20T00:15:44;2.20;;;1.63;;
60859;SDS011;46694;54.382;9.708;2023-07-20T00:18:24;2.17;;;1.63;;
60859;SDS011;46694;54.382;9.708;2023-07-20T00:21:03;5.23;;;2.00;;
60859;SDS011;46694;54.382;9.708;2023-07-20T00:23:43;2.07;;;1.57;;
60859;SDS011;46694;54.382;9.708;2023-07-20T00:26:22;1.47;;;1.37;;
60859;SDS011;46694;54.382;9.708;2023-07-20T00:29:02;3.37;;;1.83;;
60859;SDS011;46694;54.382;9.708;2023-07-20T00:31:42;1.37;;;1.27;;
60859;SDS011;46694;54.382;9.708;2023-07-20T00:34:22;2.03;;;1.43;;
60859;SDS011;46694;54.382;9.708;2023-07-20T00:37:01;2.73;;;1.70;;
60859;SDS011;46694;54.382;9.708;2023-07-20T00:39:41;1.90;;;1.20;;
60859;SDS011;46694;54.382;9.708;2023-07-20T00:42:21;3.73;;;1.73;;
60859;SDS011;46694;54.382;9.708;2023-07-20T00:45:00;3.03;;;1.20;;
60859;SDS011;46694;54.382;9.708;2023-07-20T00:47:40;2.20;;;2.07;;
60859;SDS011;46694;54.382;9.708;2023-07-20T00:50:19;1.67;;;1.50;;
60859;SDS011;46694;54.382;9.708;2023-07-20T00:52:59;2.30;;;1.70;;
60859;SDS011;46694;54.382;9.708;2023-07-20T00:55:39;1.40;;;1.30;;
60859;SDS011;46694;54.382;9.708;2023-07-20T00:58:19;1.70;;;1.53;;
60859;SDS011;46694;54.382;9.708;2023-07-20T01:00:58;3.23;;;1.80;;
60859;SDS011;46694;54.382;9.708;2023-07-20T01:03:38;2.40;;;1.60;;
60859;SDS011;46694;54.382;9.708;2023-07-20T01:09:31;5.67;;;1.90;;
60859;SDS011;46694;54.382;9.708;2023-07-20T01:12:52;3.70;;;1.60;;
60859;SDS011;46694;54.382;9.708;2023-07-20T01:15:34;4.03;;;2.00;;
60859;SDS011;46694;54.382;9.708;2023-07-20T01:18:13;3.50;;;2.33;;
60859;SDS011;46694;54.382;9.708;2023-07-20T01:20:59;2.83;;;2.00;;
60859;SDS011;46694;54.382;9.708;2023-07-20T01:27:05;5.33;;;2.40;;
60859;SDS011;46694;54.382;9.708;2023-07-20T01:33:34;3.13;;;2.50;;
60859;SDS011;46694;54.382;9.708;2023-07-20T01:36:14;4.20;;;2.30;;
60859;SDS011;46694;54.382;9.708;2023-07-20T01:38:57;2.63;;;2.53;;
60859;SDS011;46694;54.382;9.708;2023-07-20T01:41:36;4.00;;;2.80;;
60859;SDS011;46694;54.382;9.708;2023-07-20T01:44:16;5.53;;;2.47;;
60859;SDS011;46694;54.382;9.708;2023-07-20T01:46:55;2.90;;;2.40;;
60859;SDS011;46694;54.382;9.708;2023-07-20T01:49:35;2.50;;;2.30;;
60859;SDS011;46694;54.382;9.708;2023-07-20T01:52:15;2.33;;;2.13;;
60859;SDS011;46694;54.382;9.708;2023-07-20T01:54:54;2.77;;;1.87;;
60859;SDS011;46694;54.382;9.708;2023-07-20T01:57:34;4.43;;;2.10;;
60859;SDS011;46694;54.382;9.708;2023-07-20T02:00:14;2.63;;;2.43;;
60859;SDS011;46694;54.382;9.708;2023-07-20T02:02:54;2.20;;;1.83;;
60859;SDS011;46694;54.382;9.708;2023-07-20T02:05:33;5.30;;;2.30;;
60859;SDS011;46694;54.382;9.708;2023-07-20T02:08:13;2.90;;;1.90;;
60859;SDS011;46694;54.382;9.708;2023-07-20T02:10:52;2.90;;;2.17;;
60859;SDS011;46694;54.382;9.708;2023-07-20T02:13:32;2.47;;;2.27;;
60859;SDS011;46694;54.382;9.708;2023-07-20T02:16:12;2.17;;;2.07;;
60859;SDS011;46694;54.382;9.708;2023-07-20T02:18:52;3.90;;;2.50;;
60859;SDS011;46694;54.382;9.708;2023-07-20T02:21:32;3.93;;;2.23;;
60859;SDS011;46694;54.382;9.708;2023-07-20T02:24:12;2.70;;;2.50;;
60859;SDS011;46694;54.382;9.708;2023-07-20T02:26:52;2.50;;;2.30;;
60859;SDS011;46694;54.382;9.708;2023-07-20T02:29:31;2.43;;;2.23;;
60859;SDS011;46694;54.382;9.708;2023-07-20T02:32:11;2.43;;;2.20;;
60859;SDS011;46694;54.382;9.708;2023-07-20T02:34:51;5.77;;;2.33;;
60859;SDS011;46694;54.382;9.708;2023-07-20T02:37:31;3.03;;;1.67;;
60859;SDS011;46694;54.382;9.708;2023-07-20T02:40:13;2.10;;;2.00;;
60859;SDS011;46694;54.382;9.708;2023-07-20T02:42:52;3.43;;;2.13;;
60859;SDS011;46694;54.382;9.708;2023-07-20T02:45:32;2.27;;;2.07;;
60859;SDS011;46694;54.382;9.708;2023-07-20T02:48:12;1.87;;;1.67;;
60859;SDS011;46694;54.382;9.708;2023-07-20T02:50:51;2.07;;;1.83;;
60859;SDS011;46694;54.382;9.708;2023-07-20T02:53:30;4.47;;;2.13;;
60859;SDS011;46694;54.382;9.708;2023-07-20T02:56:10;2.27;;;2.17;;
60859;SDS011;46694;54.382;9.708;2023-07-20T02:58:50;2.43;;;2.17;;
60859;SDS011;46694;54.382;9.708;2023-07-20T03:01:30;2.57;;;2.37;;
60859;SDS011;46694;54.382;9.708;2023-07-20T03:04:10;3.87;;;1.93;;
60859;SDS011;46694;54.382;9.708;2023-07-20T03:06:50;3.53;;;2.37;;
60859;SDS011;46694;54.382;9.708;2023-07-20T03:09:29;7.57;;;2.13;;
60859;SDS011;46694;54.382;9.708;2023-07-20T03:12:09;3.77;;;2.10;;
60859;SDS011;46694;54.382;9.708;2023-07-20T03:14:49;2.50;;;2.30;;
60859;SDS011;46694;54.382;9.708;2023-07-20T03:17:28;5.37;;;2.70;;
60859;SDS011;46694;54.382;9.708;2023-07-20T03:20:08;2.97;;;2.23;;
60859;SDS011;46694;54.382;9.708;2023-07-20T03:22:48;3.90;;;2.40;;
60859;SDS011;46694;54.382;9.708;2023-07-20T03:25:28;2.47;;;2.33;;
60859;SDS011;46694;54.382;9.708;2023-07-20T03:28:08;5.90;;;2.23;;
60859;SDS011;46694;54.382;9.708;2023-07-20T03:30:52;3.93;;;2.40;;
60859;SDS011;46694;54.382;9.708;2023-07-20T03:33:35;3.80;;;2.90;;
60859;SDS011;46694;54.382;9.708;2023-07-20T03:36:14;4.50;;;2.60;;
60859;SDS011;46694;54.382;9.708;2023-07-20T03:38:54;3.10;;;2.13;;
60859;SDS011;46694;54.382;9.708;2023-07-20T03:41:34;3.47;;;2.03;;
60859;SDS011;46694;54.382;9.708;2023-07-20T03:44:13;2.80;;;2.40;;
60859;SDS011;46694;54.382;9.708;2023-07-20T03:46:53;2.40;;;2.23;;
60859;SDS011;46694;54.382;9.708;2023-07-20T03:49:32;5.67;;;2.30;;
60859;SDS011;46694;54.382;9.708;2023-07-20T03:52:12;2.57;;;1.83;;
60859;SDS011;46694;54.382;9.708;2023-07-20T03:54:52;3.97;;;2.53;;
60859;SDS011;46694;54.382;9.708;2023-07-20T03:57:32;5.80;;;2.57;;
60859;SDS011;46694;54.382;9.708;2023-07-20T04:00:11;1.90;;;1.80;;
60859;SDS011;46694;54.382;9.708;2023-07-20T04:02:53;2.47;;;1.83;;
60859;SDS011;46694;54.382;9.708;2023-07-20T04:05:33;2.97;;;1.70;;
60859;SDS011;46694;54.382;9.708;2023-07-20T04:08:12;5.80;;;1.77;;
60859;SDS011;46694;54.382;9.708;2023-07-20T04:10:52;3.37;;;2.10;;
60859;SDS011;46694;54.382;9.708;2023-07-20T04:13:32;5.37;;;1.60;;
60859;SDS011;46694;54.382;9.708;2023-07-20T04:16:14;1.60;;;1.43;;
60859;SDS011;46694;54.382;9.708;2023-07-20T04:18:57;1.97;;;1.23;;
60859;SDS011;46694;54.382;9.708;2023-07-20T04:21:39;1.83;;;1.43;;
60859;SDS011;46694;54.382;9.708;2023-07-20T04:24:20;3.10;;;1.27;;
60859;SDS011;46694;54.382;9.708;2023-07-20T04:27:00;1.50;;;1.10;;
60859;SDS011;46694;54.382;9.708;2023-07-20T04:29:39;4.43;;;1.10;;
60859;SDS011;46694;54.382;9.708;2023-07-20T04:32:19;3.33;;;1.10;;
60859;SDS011;46694;54.382;9.708;2023-07-20T04:34:59;1.10;;;0.80;;
60859;SDS011;46694;54.382;9.708;2023-07-20T04:37:38;3.47;;;0.80;;
60859;SDS011;46694;54.382;9.708;2023-07-20T04:40:23;2.47;;;1.27;;
60859;SDS011;46694;54.382;9.708;2023-07-20T04:43:03;3.43;;;1.40;;
60859;SDS011;46694;54.382;9.708;2023-07-20T04:45:42;1.27;;;1.10;;
60859;SDS011;46694;54.382;9.708;2023-07-20T04:48:22;2.90;;;1.30;;
60859;SDS011;46694;54.382;9.708;2023-07-20T04:51:02;2.50;;;1.47;;
60859;SDS011;46694;54.382;9.708;2023-07-20T04:53:42;1.93;;;1.33;;
60859;SDS011;46694;54.382;9.708;2023-07-20T04:56:22;1.83;;;1.37;;
60859;SDS011;46694;54.382;9.708;2023-07-20T04:59:14;2.50;;;1.50;;
60859;SDS011;46694;54.382;9.708;2023-07-20T05:01:53;1.67;;;1.50;;
60859;SDS011;46694;54.382;9.708;2023-07-20T05:04:33;1.57;;;1.27;;
60859;SDS011;46694;54.382;9.708;2023-07-20T05:07:13;7.57;;;1.27;;
60859;SDS011;46694;54.382;9.708;2023-07-20T05:09:52;13.40;;;1.60;;
60859;SDS011;46694;54.382;9.708;2023-07-20T05:12:32;4.87;;;1.13;;
60859;SDS011;46694;54.382;9.708;2023-07-20T05:15:12;5.57;;;1.73;;
60859;SDS011;46694;54.382;9.708;2023-07-20T05:17:52;5.83;;;1.90;;
60859;SDS011;46694;54.382;9.708;2023-07-20T05:20:31;3.63;;;1.70;;
60859;SDS011;46694;54.382;9.708;2023-07-20T05:23:12;4.33;;;2.13;;
60859;SDS011;46694;54.382;9.708;2023-07-20T05:25:57;3.75;;;1.75;;
60859;SDS011;46694;54.382;9.708;2023-07-20T05:28:38;3.57;;;1.90;;
60859;SDS011;46694;54.382;9.708;2023-07-20T05:31:18;3.13;;;1.70;;
60859;SDS011;46694;54.382;9.708;2023-07-20T05:33:57;3.33;;;1.50;;
60859;SDS011;46694;54.382;9.708;2023-07-20T05:36:37;5.23;;;2.30;;
60859;SDS011;46694;54.382;9.708;2023-07-20T05:39:17;1.50;;;1.40;;
60859;SDS011;46694;54.382;9.708;2023-07-20T05:41:57;5.73;;;1.90;;
60859;SDS011;46694;54.382;9.708;2023-07-20T05:44:36;4.10;;;2.27;;
60859;SDS011;46694;54.382;9.708;2023-07-20T05:47:16;4.40;;;2.77;;
60859;SDS011;46694;54.382;9.708;2023-07-20T05:49:56;3.10;;;1.47;;
60859;SDS011;46694;54.382;9.708;2023-07-20T05:52:41;1.97;;;1.70;;
60859;SDS011;46694;54.382;9.708;2023-07-20T05:55:21;4.57;;;2.03;;
60859;SDS011;46694;54.382;9.708;2023-07-20T05:58:01;4.30;;;2.17;;
60859;SDS011;46694;54.382;9.708;2023-07-20T06:00:40;6.10;;;2.00;;
60859;SDS011;46694;54.382;9.708;2023-07-20T06:03:20;7.40;;;2.50;;
60859;SDS011;46694;54.382;9.708;2023-07-20T06:06:01;4.73;;;2.37;;
60859;SDS011;46694;54.382;9.708;2023-07-20T06:08:41;5.27;;;1.80;;
60859;SDS011;46694;54.382;9.708;2023-07-20T06:11:20;4.80;;;2.30;;
60859;SDS011;46694;54.382;9.708;2023-07-20T06:14:00;4.60;;;2.37;;
60859;SDS011;46694;54.382;9.708;2023-07-20T06:16:40;8.50;;;2.00;;
60859;SDS011;46694;54.382;9.708;2023-07-20T06:19:19;5.00;;;1.80;;
60859;SDS011;46694;54.382;9.708;2023-07-20T06:22:01;4.40;;;1.87;;
60859;SDS011;46694;54.382;9.708;2023-07-20T06:24:41;4.87;;;2.07;;
60859;SDS011;46694;54.382;9.708;2023-07-20T06:27:20;6.27;;;2.23;;
60859;SDS011;46694;54.382;9.708;2023-07-20T06:30:00;3.70;;;1.83;;
60859;SDS011;46694;54.382;9.708;2023-07-20T06:32:40;3.50;;;1.60;;
60859;SDS011;46694;54.382;9.708;2023-07-20T06:35:19;7.47;;;2.30;;
60859;SDS011;46694;54.382;9.708;2023-07-20T06:37:59;7.00;;;1.57;;
60859;SDS011;46694;54.382;9.708;2023-07-20T06:40:39;6.17;;;1.80;;
60859;SDS011;46694;54.382;9.708;2023-07-20T06:43:19;6.93;;;2.07;;
60859;SDS011;46694;54.382;9.708;2023-07-20T06:45:58;5.20;;;1.80;;
60859;SDS011;46694;54.382;9.708;2023-07-20T06:48:38;6.10;;;1.77;;
60859;SDS011;46694;54.382;9.708;2023-07-20T06:51:18;4.43;;;1.87;;
60859;SDS011;46694;54.382;9.708;2023-07-20T06:53:57;5.43;;;1.87;;
60859;SDS011;46694;54.382;9.708;2023-07-20T06:56:37;4.20;;;2.17;;
60859;SDS011;46694;54.382;9.708;2023-07-20T06:59:17;5.67;;;2.17;;
60859;SDS011;46694;54.382;9.708;2023-07-20T07:01:56;10.50;;;3.17;;
60859;SDS011;46694;54.382;9.708;2023-07-20T07:04:36;7.17;;;3.10;;
60859;SDS011;46694;54.382;9.708;2023-07-20T07:07:15;4.60;;;1.80;;
60859;SDS011;46694;54.382;9.708;2023-07-20T07:09:55;9.87;;;2.00;;
60859;SDS011;46694;54.382;9.708;2023-07-20T07:12:34;4.87;;;2.00;;
60859;SDS011;46694;54.382;9.708;2023-07-20T07:15:16;10.20;;;3.47;;
60859;SDS011;46694;54.382;9.708;2023-07-20T07:17:56;6.23;;;2.50;;
60859;SDS011;46694;54.382;9.708;2023-07-20T07:20:38;4.40;;;2.00;;
60859;SDS011;46694;54.382;9.708;2023-07-20T07:23:17;12.00;;;2.43;;
60859;SDS011;46694;54.382;9.708;2023-07-20T07:25:57;4.73;;;1.93;;
60859;SDS011;46694;54.382;9.708;2023-07-20T07:28:37;6.03;;;1.63;;
60859;SDS011;46694;54.382;9.708;2023-07-20T07:31:16;5.23;;;1.27;;
60859;SDS011;46694;54.382;9.708;2023-07-20T07:36:39;7.83;;;2.00;;
60859;SDS011;46694;54.382;9.708;2023-07-20T07:39:19;6.47;;;1.27;;
60859;SDS011;46694;54.382;9.708;2023-07-20T07:41:58;4.17;;;1.40;;
60859;SDS011;46694;54.382;9.708;2023-07-20T07:44:38;2.97;;;1.10;;
60859;SDS011;46694;54.382;9.708;2023-07-20T07:47:18;5.60;;;1.50;;
60859;SDS011;46694;54.382;9.708;2023-07-20T07:49:57;7.67;;;1.37;;
60859;SDS011;46694;54.382;9.708;2023-07-20T07:52:37;7.73;;;1.40;;
60859;SDS011;46694;54.382;9.708;2023-07-20T07:55:17;6.37;;;1.87;;
60859;SDS011;46694;54.382;9.708;2023-07-20T07:57:56;6.47;;;1.27;;
60859;SDS011;46694;54.382;9.708;2023-07-20T08:00:36;6.67;;;2.00;;
60859;SDS011;46694;54.382;9.708;2023-07-20T08:03:16;6.10;;;1.50;;
60859;SDS011;46694;54.382;9.708;2023-07-20T08:05:55;5.60;;;2.10;;
60859;SDS011;46694;54.382;9.708;2023-07-20T08:08:35;2.40;;;1.10;;
60859;SDS011;46694;54.382;9.708;2023-07-20T08:11:14;3.93;;;1.17;;
60859;SDS011;46694;54.382;9.708;2023-07-20T08:13:55;4.33;;;1.00;;
60859;SDS011;46694;54.382;9.708;2023-07-20T08:16:34;5.17;;;1.30;;
60859;SDS011;46694;54.382;9.708;2023-07-20T08:19:14;1.37;;;0.53;;
60859;SDS011;46694;54.382;9.708;2023-07-20T08:21:53;3.63;;;0.80;;
60859;SDS011;46694;54.382;9.708;2023-07-20T08:24:33;4.10;;;0.93;;
60859;SDS011;46694;54.382;9.708;2023-07-20T08:27:12;4.23;;;1.00;;
60859;SDS011;46694;54.382;9.708;2023-07-20T08:29:52;4.03;;;1.33;;
60859;SDS011;46694;54.382;9.708;2023-07-20T08:32:32;3.10;;;0.60;;
60859;SDS011;46694;54.382;9.708;2023-07-20T08:35:12;9.73;;;1.00;;
60859;SDS011;46694;54.382;9.708;2023-07-20T08:37:51;2.30;;;1.00;;
60859;SDS011;46694;54.382;9.708;2023-07-20T08:40:31;7.23;;;0.70;;
60859;SDS011;46694;54.382;9.708;2023-07-20T08:43:12;2.10;;;0.50;;
60859;SDS011;46694;54.382;9.708;2023-07-20T08:45:55;1.43;;;0.60;;
60859;SDS011;46694;54.382;9.708;2023-07-20T08:48:35;2.50;;;0.70;;
60859;SDS011;46694;54.382;9.708;2023-07-20T08:51:15;3.90;;;0.80;;
60859;SDS011;46694;54.382;9.708;2023-07-20T08:53:55;3.93;;;0.77;;
60859;SDS011;46694;54.382;9.708;2023-07-20T08:56:36;2.13;;;0.50;;
60859;SDS011;46694;54.382;9.708;2023-07-20T08:59:17;2.10;;;0.50;;
60859;SDS011;46694;54.382;9.708;2023-07-20T09:01:58;1.73;;;0.70;;
60859;SDS011;46694;54.382;9.708;2023-07-20T09:04:39;2.77;;;1.00;;
60859;SDS011;46694;54.382;9.708;2023-07-20T09:07:18;1.67;;;0.57;;
60859;SDS011;46694;54.382;9.708;2023-07-20T09:09:58;1.43;;;0.63;;
60859;SDS011;46694;54.382;9.708;2023-07-20T09:12:39;6.10;;;0.80;;
60859;SDS011;46694;54.382;9.708;2023-07-20T09:15:22;0.80;;;0.40;;
60859;SDS011;46694;54.382;9.708;2023-07-20T09:18:02;1.20;;;0.70;;
60859;SDS011;46694;54.382;9.708;2023-07-20T09:20:44;4.10;;;0.60;;
60859;SDS011;46694;54.382;9.708;2023-07-20T09:23:31;3.20;;;0.80;;
60859;SDS011;46694;54.382;9.708;2023-07-20T09:26:18;2.40;;;0.50;;
60859;SDS011;46694;54.382;9.708;2023-07-20T09:28:57;1.50;;;1.40;;
60859;SDS011;46694;54.382;9.708;2023-07-20T09:31:37;5.00;;;0.93;;
60859;SDS011;46694;54.382;9.708;2023-07-20T09:34:19;3.13;;;0.73;;
60859;SDS011;46694;54.382;9.708;2023-07-20T09:36:59;4.47;;;0.67;;
60859;SDS011;46694;54.382;9.708;2023-07-20T09:39:43;3.67;;;0.50;;
60859;SDS011;46694;54.382;9.708;2023-07-20T09:42:25;3.77;;;1.07;;
60859;SDS011;46694;54.382;9.708;2023-07-20T09:45:07;2.03;;;0.80;;
60859;SDS011;46694;54.382;9.708;2023-07-20T09:47:47;6.00;;;1.73;;
60859;SDS011;46694;54.382;9.708;2023-07-20T09:50:27;3.93;;;1.00;;
60859;SDS011;46694;54.382;9.708;2023-07-20T09:53:07;6.40;;;1.30;;
60859;SDS011;46694;54.382;9.708;2023-07-20T09:55:50;5.47;;;1.20;;
60859;SDS011;46694;54.382;9.708;2023-07-20T09:58:32;2.70;;;1.10;;
60859;SDS011;46694;54.382;9.708;2023-07-20T10:01:13;8.70;;;1.90;;
60859;SDS011;46694;54.382;9.708;2023-07-20T10:04:00;4.17;;;0.90;;
60859;SDS011;46694;54.382;9.708;2023-07-20T10:06:43;8.07;;;1.23;;
60859;SDS011;46694;54.382;9.708;2023-07-20T10:09:26;5.50;;;1.20;;
60859;SDS011;46694;54.382;9.708;2023-07-20T10:12:07;3.60;;;1.10;;
60859;SDS011;46694;54.382;9.708;2023-07-20T10:14:52;4.87;;;1.27;;
60859;SDS011;46694;54.382;9.708;2023-07-20T10:21:02;6.07;;;1.20;;
60859;SDS011;46694;54.382;9.708;2023-07-20T10:23:46;4.20;;;1.33;;
60859;SDS011;46694;54.382;9.708;2023-07-20T10:26:26;10.10;;;1.50;;
60859;SDS011;46694;54.382;9.708;2023-07-20T10:29:05;8.63;;;1.80;;
60859;SDS011;46694;54.382;9.708;2023-07-20T10:31:46;5.83;;;1.93;;
60859;SDS011;46694;54.382;9.708;2023-07-20T10:34:25;16.63;;;2.43;;
60859;SDS011;46694;54.382;9.708;2023-07-20T10:37:05;6.43;;;1.67;;
60859;SDS011;46694;54.382;9.708;2023-07-20T10:39:45;8.37;;;2.00;;
60859;SDS011;46694;54.382;9.708;2023-07-20T10:42:25;5.00;;;1.40;;
60859;SDS011;46694;54.382;9.708;2023-07-20T10:45:13;6.73;;;1.43;;
60859;SDS011;46694;54.382;9.708;2023-07-20T10:47:52;7.17;;;1.57;;
60859;SDS011;46694;54.382;9.708;2023-07-20T10:50:35;9.40;;;1.40;;
60859;SDS011;46694;54.382;9.708;2023-07-20T10:53:15;5.20;;;1.43;;
60859;SDS011;46694;54.382;9.708;2023-07-20T10:59:18;6.50;;;1.13;;
60859;SDS011;46694;54.382;9.708;2023-07-20T11:02:09;3.87;;;1.10;;
60859;SDS011;46694;54.382;9.708;2023-07-20T11:04:48;6.83;;;1.67;;
60859;SDS011;46694;54.382;9.708;2023-07-20T11:07:37;5.97;;;1.43;;
60859;SDS011;46694;54.382;9.708;2023-07-20T11:10:17;10.70;;;2.10;;
60859;SDS011;46694;54.382;9.708;2023-07-20T11:13:40;7.60;;;1.67;;
60859;SDS011;46694;54.382;9.708;2023-07-20T11:16:02;6.17;;;1.00;;
60859;SDS011;46694;54.382;9.708;2023-07-20T11:18:43;6.33;;;1.57;;
60859;SDS011;46694;54.382;9.708;2023-07-20T11:22:16;4.07;;;1.93;;
60859;SDS011;46694;54.382;9.708;2023-07-20T11:25:03;4.70;;;1.60;;
60859;SDS011;46694;54.382;9.708;2023-07-20T11:27:45;3.03;;;0.90;;
60859;SDS011;46694;54.382;9.708;2023-07-20T11:30:32;5.20;;;1.10;;
60859;SDS011;46694;54.382;9.708;2023-07-20T11:33:13;2.50;;;1.10;;
60859;SDS011;46694;54.382;9.708;2023-07-20T11:35:54;3.67;;;1.20;;
60859;SDS011;46694;54.382;9.708;2023-07-20T11:38:57;10.40;;;1.33;;
60859;SDS011;46694;54.382;9.708;2023-07-20T11:44:28;3.63;;;1.03;;
60859;SDS011;46694;54.382;9.708;2023-07-20T11:47:11;2.97;;;1.00;;
60859;SDS011;46694;54.382;9.708;2023-07-20T11:49:52;6.10;;;1.57;;
60859;SDS011;46694;54.382;9.708;2023-07-20T11:52:33;7.17;;;1.33;;
60859;SDS011;46694;54.382;9.708;2023-07-20T11:55:14;4.47;;;1.30;;
60859;SDS011;46694;54.382;9.708;2023-07-20T11:58:06;4.03;;;1.07;;
60859;SDS011;46694;54.382;9.708;2023-07-20T12:00:47;2.30;;;0.90;;
60859;SDS011;46694;54.382;9.708;2023-07-20T12:03:27;5.10;;;1.67;;
60859;SDS011;46694;54.382;9.708;2023-07-20T12:06:07;2.87;;;0.90;;
60859;SDS011;46694;54.382;9.708;2023-07-20T12:08:50;3.67;;;1.30;;
60859;SDS011;46694;54.382;9.708;2023-07-20T12:11:35;9.20;;;1.53;;
60859;SDS011;46694;54.382;9.708;2023-07-20T12:14:16;6.33;;;1.50;;
60859;SDS011;46694;54.382;9.708;2023-07-20T12:16:56;7.43;;;1.50;;
60859;SDS011;46694;54.382;9.708;2023-07-20T12:19:37;11.63;;;2.10;;
60859;SDS011;46694;54.382;9.708;2023-07-20T12:22:18;7.13;;;1.87;;
60859;SDS011;46694;54.382;9.708;2023-07-20T12:24:58;7.30;;;1.70;;
60859;SDS011;46694;54.382;9.708;2023-07-20T12:27:38;6.87;;;1.50;;
60859;SDS011;46694;54.382;9.708;2023-07-20T12:30:17;9.13;;;1.90;;
60859;SDS011;46694;54.382;9.708;2023-07-20T12:32:57;4.87;;;1.40;;
60859;SDS011;46694;54.382;9.708;2023-07-20T12:35:36;4.70;;;1.03;;
60859;SDS011;46694;54.382;9.708;2023-07-20T12:38:16;2.90;;;0.90;;
60859;SDS011;46694;54.382;9.708;2023-07-20T12:40:56;2.27;;;0.90;;
60859;SDS011;46694;54.382;9.708;2023-07-20T12:43:37;1.03;;;0.80;;
60859;SDS011;46694;54.382;9.708;2023-07-20T12:46:16;3.27;;;0.80;;
60859;SDS011;46694;54.382;9.708;2023-07-20T12:48:56;2.77;;;0.73;;
60859;SDS011;46694;54.382;9.708;2023-07-20T12:51:36;6.03;;;1.57;;
60859;SDS011;46694;54.382;9.708;2023-07-20T12:54:15;5.13;;;1.20;;
60859;SDS011;46694;54.382;9.708;2023-07-20T12:56:55;2.70;;;0.93;;
60859;SDS011;46694;54.382;9.708;2023-07-20T12:59:34;7.53;;;0.97;;
60859;SDS011;46694;54.382;9.708;2023-07-20T13:02:14;2.73;;;1.23;;
60859;SDS011;46694;54.382;9.708;2023-07-20T13:04:54;2.97;;;1.00;;
60859;SDS011;46694;54.382;9.708;2023-07-20T13:07:34;8.57;;;1.33;;
60859;SDS011;46694;54.382;9.708;2023-07-20T13:10:16;6.70;;;1.60;;
60859;SDS011;46694;54.382;9.708;2023-07-20T13:12:57;3.33;;;1.73;;
60859;SDS011;46694;54.382;9.708;2023-07-20T13:15:43;11.03;;;1.70;;
60859;SDS011;46694;54.382;9.708;2023-07-20T13:18:24;11.20;;;1.40;;
60859;SDS011;46694;54.382;9.708;2023-07-20T13:21:04;4.77;;;1.23;;
60859;SDS011;46694;54.382;9.708;2023-07-20T13:23:48;7.13;;;1.37;;
60859;SDS011;46694;54.382;9.708;2023-07-20T13:26:28;3.30;;;1.20;;
60859;SDS011;46694;54.382;9.708;2023-07-20T13:29:07;5.30;;;1.10;;
60859;SDS011;46694;54.382;9.708;2023-07-20T13:31:47;8.97;;;1.20;;
60859;SDS011;46694;54.382;9.708;2023-07-20T13:34:27;1.33;;;0.60;;
60859;SDS011;46694;54.382;9.708;2023-07-20T13:37:06;2.10;;;0.80;;
60859;SDS011;46694;54.382;9.708;2023-07-20T13:39:47;6.80;;;1.27;;
60859;SDS011;46694;54.382;9.708;2023-07-20T13:42:26;3.27;;;1.00;;
60859;SDS011;46694;54.382;9.708;2023-07-20T13:45:06;2.70;;;0.90;;
60859;SDS011;46694;54.382;9.708;2023-07-20T13:47:46;3.73;;;0.93;;
60859;SDS011;46694;54.382;9.708;2023-07-20T13:50:26;1.77;;;0.80;;
60859;SDS011;46694;54.382;9.708;2023-07-20T13:53:07;6.43;;;1.20;;
60859;SDS011;46694;54.382;9.708;2023-07-20T13:55:46;4.87;;;1.80;;
60859;SDS011;46694;54.382;9.708;2023-07-20T13:58:26;4.47;;;1.03;;
60859;SDS011;46694;54.382;9.708;2023-07-20T14:01:05;3.20;;;1.63;;
60859;SDS011;46694;54.382;9.708;2023-07-20T14:03:45;2.50;;;0.90;;
60859;SDS011;46694;54.382;9.708;2023-07-20T14:06:24;5.63;;;0.97;;
60859;SDS011;46694;54.382;9.708;2023-07-20T14:09:05;6.47;;;1.30;;
60859;SDS011;46694;54.382;9.708;2023-07-20T14:11:44;2.93;;;1.00;;
60859;SDS011;46694;54.382;9.708;2023-07-20T14:14:24;5.53;;;1.30;;
60859;SDS011;46694;54.382;9.708;2023-07-20T14:17:03;6.13;;;1.60;;
60859;SDS011;46694;54.382;9.708;2023-07-20T14:19:43;4.90;;;1.60;;
60859;SDS011;46694;54.382;9.708;2023-07-20T14:22:22;4.80;;;1.40;;
60859;SDS011;46694;54.382;9.708;2023-07-20T14:25:02;8.83;;;1.33;;
60859;SDS011;46694;54.382;9.708;2023-07-20T14:27:42;4.20;;;1.17;;
60859;SDS011;46694;54.382;9.708;2023-07-20T14:30:22;4.73;;;1.23;;
60859;SDS011;46694;54.382;9.708;2023-07-20T14:33:03;6.50;;;1.43;;
60859;SDS011;46694;54.382;9.708;2023-07-20T14:35:42;7.73;;;1.10;;
60859;SDS011;46694;54.382;9.708;2023-07-20T14:38:22;3.60;;;1.30;;
60859;SDS011;46694;54.382;9.708;2023-07-20T14:41:02;5.70;;;1.40;;
60859;SDS011;46694;54.382;9.708;2023-07-20T14:43:44;6.50;;;1.40;;
60859;SDS011;46694;54.382;9.708;2023-07-20T14:46:24;2.80;;;1.10;;
60859;SDS011;46694;54.382;9.708;2023-07-20T14:49:04;7.10;;;1.50;;
60859;SDS011;46694;54.382;9.708;2023-07-20T14:51:43;3.73;;;1.17;;
60859;SDS011;46694;54.382;9.708;2023-07-20T14:54:25;2.40;;;1.17;;
60859;SDS011;46694;54.382;9.708;2023-07-20T14:57:05;2.40;;;1.00;;
60859;SDS011;46694;54.382;9.708;2023-07-20T14:59:52;4.23;;;1.83;;
60859;SDS011;46694;54.382;9.708;2023-07-20T15:02:31;4.40;;;1.43;;
60859;SDS011;46694;54.382;9.708;2023-07-20T15:05:11;6.10;;;1.53;;
60859;SDS011;46694;54.382;9.708;2023-07-20T15:07:50;7.50;;;1.30;;
60859;SDS011;46694;54.382;9.708;2023-07-20T15:10:30;7.90;;;1.87;;
60859;SDS011;46694;54.382;9.708;2023-07-20T15:13:10;7.00;;;1.40;;
60859;SDS011;46694;54.382;9.708;2023-07-20T15:15:50;2.53;;;1.30;;
60859;SDS011;46694;54.382;9.708;2023-07-20T15:18:30;9.47;;;1.87;;
60859;SDS011;46694;54.382;9.708;2023-07-20T15:21:09;4.70;;;1.20;;
60859;SDS011;46694;54.382;9.708;2023-07-20T15:23:49;3.57;;;2.07;;
60859;SDS011;46694;54.382;9.708;2023-07-20T15:26:29;6.20;;;1.17;;
60859;SDS011;46694;54.382;9.708;2023-07-20T15:29:10;5.87;;;2.03;;
60859;SDS011;46694;54.382;9.708;2023-07-20T15:31:49;9.17;;;1.97;;
60859;SDS011;46694;54.382;9.708;2023-07-20T15:34:29;6.90;;;1.97;;
60859;SDS011;46694;54.382;9.708;2023-07-20T15:37:09;7.13;;;1.43;;
60859;SDS011;46694;54.382;9.708;2023-07-20T15:39:50;3.53;;;1.40;;
60859;SDS011;46694;54.382;9.708;2023-07-20T15:42:30;6.03;;;1.10;;
60859;SDS011;46694;54.382;9.708;2023-07-20T15:45:10;5.07;;;0.93;;
60859;SDS011;46694;54.382;9.708;2023-07-20T15:47:50;5.77;;;1.30;;
60859;SDS011;46694;54.382;9.708;2023-07-20T15:50:29;6.60;;;1.20;;
60859;SDS011;46694;54.382;9.708;2023-07-20T15:53:09;5.30;;;1.23;;
60859;SDS011;46694;54.382;9.708;2023-07-20T15:55:52;4.57;;;1.37;;
60859;SDS011;46694;54.382;9.708;2023-07-20T15:58:34;4.80;;;1.37;;
60859;SDS011;46694;54.382;9.708;2023-07-20T16:01:14;6.90;;;1.17;;
60859;SDS011;46694;54.382;9.708;2023-07-20T16:03:54;5.63;;;1.63;;
60859;SDS011;46694;54.382;9.708;2023-07-20T16:06:33;9.03;;;1.83;;
60859;SDS011;46694;54.382;9.708;2023-07-20T16:09:14;4.00;;;1.30;;
60859;SDS011;46694;54.382;9.708;2023-07-20T16:11:53;9.23;;;1.67;;
60859;SDS011;46694;54.382;9.708;2023-07-20T16:14:33;9.00;;;1.57;;
60859;SDS011;46694;54.382;9.708;2023-07-20T16:17:12;8.87;;;1.50;;
60859;SDS011;46694;54.382;9.708;2023-07-20T16:22:37;4.27;;;1.00;;
60859;SDS011;46694;54.382;9.708;2023-07-20T16:25:17;4.67;;;1.50;;
60859;SDS011;46694;54.382;9.708;2023-07-20T16:27:56;4.60;;;1.20;;
60859;SDS011;46694;54.382;9.708;2023-07-20T16:30:36;9.43;;;1.60;;
60859;SDS011;46694;54.382;9.708;2023-07-20T16:33:15;8.87;;;1.47;;
60859;SDS011;46694;54.382;9.708;2023-07-20T16:35:55;7.77;;;2.27;;